sensor_id;sensor_type;location;lat;lon;timestamp;temperature;humidity
84296;SHT31;74464;42.688;23.304;2024-02-28T00:00:29;8.02;68.84
84296;SHT31;74464;42.688;23.304;2024-02-28T00:02:55;8.22;68.65
84296;SHT31;74464;42.688;23.304;2024-02-28T00:05:20;8.30;68.69
84296;SHT31;74464;42.688;23.304;2024-02-28T00:07:46;8.29;68.45
84296;SHT31;74464;42.688;23.304;2024-02-28T00:10:13;8.03;69.12
84296;SHT31;74464;42.688;23.304;2024-02-28T00:12:39;7.82;69.75
84296;SHT31;74464;42.688;23.304;2024-02-28T00:15:06;7.81;69.97
84296;SHT31;74464;42.688;23.304;2024-02-28T00:17:40;7.58;70.83
84296;SHT31;74464;42.688;23.304;2024-02-28T00:20:07;7.64;70.51
84296;SHT31;74464;42.688;23.304;2024-02-28T00:22:36;7.77;70.03
84296;SHT31;74464;42.688;23.304;2024-02-28T00:25:05;7.84;69.92
84296;SHT31;74464;42.688;23.304;2024-02-28T00:27:32;7.92;69.71
84296;SHT31;74464;42.688;23.304;2024-02-28T00:29:59;8.01;69.29
84296;SHT31;74464;42.688;23.304;2024-02-28T00:32:24;8.09;69.14
84296;SHT31;74464;42.688;23.304;2024-02-28T00:34:50;7.88;69.69
84296;SHT31;74464;42.688;23.304;2024-02-28T00:37:15;7.65;70.64
84296;SHT31;74464;42.688;23.304;2024-02-28T00:39:44;7.86;70.12
84296;SHT31;74464;42.688;23.304;2024-02-28T00:42:10;7.96;69.67
84296;SHT31;74464;42.688;23.304;2024-02-28T00:44:36;7.93;69.71
84296;SHT31;74464;42.688;23.304;2024-02-28T00:47:02;7.85;69.72
84296;SHT31;74464;42.688;23.304;2024-02-28T00:49:27;7.84;69.81
84296;SHT31;74464;42.688;23.304;2024-02-28T00:51:55;7.60;70.60
84296;SHT31;74464;42.688;23.304;2024-02-28T00:54:21;7.51;70.97
84296;SHT31;74464;42.688;23.304;2024-02-28T00:56:49;7.73;70.42
84296;SHT31;74464;42.688;23.304;2024-02-28T00:59:14;7.40;71.59
84296;SHT31;74464;42.688;23.304;2024-02-28T01:01:41;7.47;71.45
84296;SHT31;74464;42.688;23.304;2024-02-28T01:04:07;7.23;72.20
84296;SHT31;74464;42.688;23.304;2024-02-28T01:06:33;7.33;72.08
84296;SHT31;74464;42.688;23.304;2024-02-28T01:08:58;7.27;71.94
84296;SHT31;74464;42.688;23.304;2024-02-28T01:11:25;7.30;71.97
84296;SHT31;74464;42.688;23.304;2024-02-28T01:13:51;7.34;71.87
84296;SHT31;74464;42.688;23.304;2024-02-28T01:16:17;7.13;72.79
84296;SHT31;74464;42.688;23.304;2024-02-28T01:18:43;7.08;73.00
84296;SHT31;74464;42.688;23.304;2024-02-28T01:21:09;7.05;73.11
84296;SHT31;74464;42.688;23.304;2024-02-28T01:23:35;6.99;72.89
84296;SHT31;74464;42.688;23.304;2024-02-28T01:26:00;6.81;73.55
84296;SHT31;74464;42.688;23.304;2024-02-28T01:28:29;6.84;73.81
84296;SHT31;74464;42.688;23.304;2024-02-28T01:30:55;6.78;73.88
84296;SHT31;74464;42.688;23.304;2024-02-28T01:33:20;6.78;74.13
84296;SHT31;74464;42.688;23.304;2024-02-28T01:35:47;6.74;74.39
84296;SHT31;74464;42.688;23.304;2024-02-28T01:38:13;6.71;74.26
84296;SHT31;74464;42.688;23.304;2024-02-28T01:40:44;6.81;74.04
84296;SHT31;74464;42.688;23.304;2024-02-28T01:43:11;6.68;74.62
84296;SHT31;74464;42.688;23.304;2024-02-28T01:45:37;6.71;74.66
84296;SHT31;74464;42.688;23.304;2024-02-28T01:48:03;6.73;74.95
84296;SHT31;74464;42.688;23.304;2024-02-28T01:50:33;6.70;75.18
84296;SHT31;74464;42.688;23.304;2024-02-28T01:53:00;6.80;74.66
84296;SHT31;74464;42.688;23.304;2024-02-28T01:55:26;7.12;73.41
84296;SHT31;74464;42.688;23.304;2024-02-28T01:57:54;7.09;73.00
84296;SHT31;74464;42.688;23.304;2024-02-28T02:00:22;7.18;72.75
84296;SHT31;74464;42.688;23.304;2024-02-28T02:02:49;7.20;72.69
84296;SHT31;74464;42.688;23.304;2024-02-28T02:05:16;7.27;72.50
84296;SHT31;74464;42.688;23.304;2024-02-28T02:07:46;7.37;72.42
84296;SHT31;74464;42.688;23.304;2024-02-28T02:10:12;7.43;72.01
84296;SHT31;74464;42.688;23.304;2024-02-28T02:12:38;7.44;72.31
84296;SHT31;74464;42.688;23.304;2024-02-28T02:15:04;7.48;72.21
84296;SHT31;74464;42.688;23.304;2024-02-28T02:17:30;7.37;72.52
84296;SHT31;74464;42.688;23.304;2024-02-28T02:19:58;7.31;72.82
84296;SHT31;74464;42.688;23.304;2024-02-28T02:22:27;7.30;72.81
84296;SHT31;74464;42.688;23.304;2024-02-28T02:24:56;7.31;72.89
84296;SHT31;74464;42.688;23.304;2024-02-28T02:27:24;7.38;72.66
84296;SHT31;74464;42.688;23.304;2024-02-28T02:29:50;7.44;72.64
84296;SHT31;74464;42.688;23.304;2024-02-28T02:32:16;7.46;72.81
84296;SHT31;74464;42.688;23.304;2024-02-28T02:34:41;7.47;72.52
84296;SHT31;74464;42.688;23.304;2024-02-28T02:37:07;7.53;72.55
84296;SHT31;74464;42.688;23.304;2024-02-28T02:39:35;7.55;72.43
84296;SHT31;74464;42.688;23.304;2024-02-28T02:42:00;7.50;72.33
84296;SHT31;74464;42.688;23.304;2024-02-28T02:44:28;7.36;72.88
84296;SHT31;74464;42.688;23.304;2024-02-28T02:46:55;7.27;73.39
84296;SHT31;74464;42.688;23.304;2024-02-28T02:49:20;7.29;73.27
84296;SHT31;74464;42.688;23.304;2024-02-28T02:51:46;7.16;73.98
84296;SHT31;74464;42.688;23.304;2024-02-28T02:54:12;7.33;73.75
84296;SHT31;74464;42.688;23.304;2024-02-28T02:56:42;7.42;73.51
84296;SHT31;74464;42.688;23.304;2024-02-28T02:59:09;7.42;73.61
84296;SHT31;74464;42.688;23.304;2024-02-28T03:01:35;7.37;73.82
84296;SHT31;74464;42.688;23.304;2024-02-28T03:04:01;7.38;73.71
84296;SHT31;74464;42.688;23.304;2024-02-28T03:06:27;7.37;73.64
84296;SHT31;74464;42.688;23.304;2024-02-28T03:08:53;7.40;73.16
84296;SHT31;74464;42.688;23.304;2024-02-28T03:11:18;7.36;73.09
84296;SHT31;74464;42.688;23.304;2024-02-28T03:13:44;7.34;73.18
84296;SHT31;74464;42.688;23.304;2024-02-28T03:16:12;7.40;73.32
84296;SHT31;74464;42.688;23.304;2024-02-28T03:18:37;7.23;73.68
84296;SHT31;74464;42.688;23.304;2024-02-28T03:21:04;6.78;76.27
84296;SHT31;74464;42.688;23.304;2024-02-28T03:23:30;6.81;74.80
84296;SHT31;74464;42.688;23.304;2024-02-28T03:25:55;6.75;74.69
84296;SHT31;74464;42.688;23.304;2024-02-28T03:28:21;6.87;73.81
84296;SHT31;74464;42.688;23.304;2024-02-28T03:30:48;6.57;75.76
84296;SHT31;74464;42.688;23.304;2024-02-28T03:33:15;6.50;76.22
84296;SHT31;74464;42.688;23.304;2024-02-28T03:35:40;6.43;76.22
84296;SHT31;74464;42.688;23.304;2024-02-28T03:38:06;6.47;76.38
84296;SHT31;74464;42.688;23.304;2024-02-28T03:40:32;6.44;77.04
84296;SHT31;74464;42.688;23.304;2024-02-28T03:42:58;6.60;76.31
84296;SHT31;74464;42.688;23.304;2024-02-28T03:45:27;6.55;76.41
84296;SHT31;74464;42.688;23.304;2024-02-28T03:47:53;6.74;75.55
84296;SHT31;74464;42.688;23.304;2024-02-28T03:50:20;6.60;75.80
84296;SHT31;74464;42.688;23.304;2024-02-28T03:52:46;6.33;76.99
84296;SHT31;74464;42.688;23.304;2024-02-28T03:55:12;6.36;76.98
84296;SHT31;74464;42.688;23.304;2024-02-28T03:57:38;6.37;76.58
84296;SHT31;74464;42.688;23.304;2024-02-28T04:00:04;6.64;75.82
84296;SHT31;74464;42.688;23.304;2024-02-28T04:02:30;6.73;75.48
84296;SHT31;74464;42.688;23.304;2024-02-28T04:04:55;6.77;75.24
84296;SHT31;74464;42.688;23.304;2024-02-28T04:07:23;6.82;75.19
84296;SHT31;74464;42.688;23.304;2024-02-28T04:09:51;6.81;75.00
84296;SHT31;74464;42.688;23.304;2024-02-28T04:12:16;6.81;75.20
84296;SHT31;74464;42.688;23.304;2024-02-28T04:14:42;6.88;74.90
84296;SHT31;74464;42.688;23.304;2024-02-28T04:17:10;6.84;74.85
84296;SHT31;74464;42.688;23.304;2024-02-28T04:19:35;6.78;75.23
84296;SHT31;74464;42.688;23.304;2024-02-28T04:22:03;6.65;76.46
84296;SHT31;74464;42.688;23.304;2024-02-28T04:24:28;6.37;77.45
84296;SHT31;74464;42.688;23.304;2024-02-28T04:26:54;6.13;77.85
84296;SHT31;74464;42.688;23.304;2024-02-28T04:29:22;5.78;78.58
84296;SHT31;74464;42.688;23.304;2024-02-28T04:31:47;5.70;79.14
84296;SHT31;74464;42.688;23.304;2024-02-28T04:34:14;5.78;79.28
84296;SHT31;74464;42.688;23.304;2024-02-28T04:36:41;5.74;79.83
84296;SHT31;74464;42.688;23.304;2024-02-28T04:39:06;5.78;79.62
84296;SHT31;74464;42.688;23.304;2024-02-28T04:41:33;5.82;79.57
84296;SHT31;74464;42.688;23.304;2024-02-28T04:44:01;5.99;79.04
84296;SHT31;74464;42.688;23.304;2024-02-28T04:46:27;5.97;78.99
84296;SHT31;74464;42.688;23.304;2024-02-28T04:48:54;5.78;79.22
84296;SHT31;74464;42.688;23.304;2024-02-28T04:51:19;5.85;79.18
84296;SHT31;74464;42.688;23.304;2024-02-28T04:53:46;6.12;78.15
84296;SHT31;74464;42.688;23.304;2024-02-28T04:56:12;6.23;77.38
84296;SHT31;74464;42.688;23.304;2024-02-28T04:58:37;6.12;77.85
84296;SHT31;74464;42.688;23.304;2024-02-28T05:01:03;6.19;77.45
84296;SHT31;74464;42.688;23.304;2024-02-28T05:03:29;5.74;78.67
84296;SHT31;74464;42.688;23.304;2024-02-28T05:05:58;5.63;79.87
84296;SHT31;74464;42.688;23.304;2024-02-28T05:08:23;5.61;80.04
84296;SHT31;74464;42.688;23.304;2024-02-28T05:10:50;5.74;79.62
84296;SHT31;74464;42.688;23.304;2024-02-28T05:13:17;5.77;79.47
84296;SHT31;74464;42.688;23.304;2024-02-28T05:15:43;5.79;79.37
84296;SHT31;74464;42.688;23.304;2024-02-28T05:18:08;5.77;79.44
84296;SHT31;74464;42.688;23.304;2024-02-28T05:20:35;5.95;78.81
84296;SHT31;74464;42.688;23.304;2024-02-28T05:23:01;6.02;78.35
84296;SHT31;74464;42.688;23.304;2024-02-28T05:25:28;5.81;79.20
84296;SHT31;74464;42.688;23.304;2024-02-28T05:27:55;5.78;79.65
84296;SHT31;74464;42.688;23.304;2024-02-28T05:30:20;5.87;79.30
84296;SHT31;74464;42.688;23.304;2024-02-28T05:32:46;5.84;79.94
84296;SHT31;74464;42.688;23.304;2024-02-28T05:35:12;5.90;79.43
84296;SHT31;74464;42.688;23.304;2024-02-28T05:37:40;5.91;79.70
84296;SHT31;74464;42.688;23.304;2024-02-28T05:40:07;6.16;78.55
84296;SHT31;74464;42.688;23.304;2024-02-28T05:42:35;5.97;78.93
84296;SHT31;74464;42.688;23.304;2024-02-28T05:45:00;5.95;79.45
84296;SHT31;74464;42.688;23.304;2024-02-28T05:47:26;6.20;78.65
84296;SHT31;74464;42.688;23.304;2024-02-28T05:49:53;6.20;78.49
84296;SHT31;74464;42.688;23.304;2024-02-28T05:52:21;6.25;78.55
84296;SHT31;74464;42.688;23.304;2024-02-28T05:54:46;5.99;79.43
84296;SHT31;74464;42.688;23.304;2024-02-28T05:57:13;6.10;79.41
84296;SHT31;74464;42.688;23.304;2024-02-28T05:59:40;6.19;79.60
84296;SHT31;74464;42.688;23.304;2024-02-28T06:02:06;6.36;79.26
84296;SHT31;74464;42.688;23.304;2024-02-28T06:04:32;6.57;78.37
84296;SHT31;74464;42.688;23.304;2024-02-28T06:06:59;6.61;78.14
84296;SHT31;74464;42.688;23.304;2024-02-28T06:09:25;6.50;78.73
84296;SHT31;74464;42.688;23.304;2024-02-28T06:11:53;6.34;79.40
84296;SHT31;74464;42.688;23.304;2024-02-28T06:14:21;6.29;79.61
84296;SHT31;74464;42.688;23.304;2024-02-28T06:16:49;6.29;80.00
84296;SHT31;74464;42.688;23.304;2024-02-28T06:19:15;6.26;79.99
84296;SHT31;74464;42.688;23.304;2024-02-28T06:21:42;6.55;79.47
84296;SHT31;74464;42.688;23.304;2024-02-28T06:24:08;6.84;78.54
84296;SHT31;74464;42.688;23.304;2024-02-28T06:26:35;7.13;77.76
84296;SHT31;74464;42.688;23.304;2024-02-28T06:29:00;7.43;76.59
84296;SHT31;74464;42.688;23.304;2024-02-28T06:31:30;7.71;75.59
84296;SHT31;74464;42.688;23.304;2024-02-28T06:33:57;7.88;74.60
84296;SHT31;74464;42.688;23.304;2024-02-28T06:36:22;8.12;73.97
84296;SHT31;74464;42.688;23.304;2024-02-28T06:38:49;8.33;73.47
84296;SHT31;74464;42.688;23.304;2024-02-28T06:41:16;8.54;72.85
84296;SHT31;74464;42.688;23.304;2024-02-28T06:43:42;8.76;72.00
84296;SHT31;74464;42.688;23.304;2024-02-28T06:46:08;8.93;71.10
84296;SHT31;74464;42.688;23.304;2024-02-28T06:48:35;9.12;70.72
84296;SHT31;74464;42.688;23.304;2024-02-28T06:51:01;9.29;70.23
84296;SHT31;74464;42.688;23.304;2024-02-28T06:53:28;9.50;68.71
84296;SHT31;74464;42.688;23.304;2024-02-28T06:55:54;9.61;68.35
84296;SHT31;74464;42.688;23.304;2024-02-28T06:58:20;9.65;68.54
84296;SHT31;74464;42.688;23.304;2024-02-28T07:00:47;9.71;68.02
84296;SHT31;74464;42.688;23.304;2024-02-28T07:03:13;9.89;67.82
84296;SHT31;74464;42.688;23.304;2024-02-28T07:05:38;10.02;67.12
84296;SHT31;74464;42.688;23.304;2024-02-28T07:08:04;10.12;67.19
84296;SHT31;74464;42.688;23.304;2024-02-28T07:10:31;10.26;66.57
84296;SHT31;74464;42.688;23.304;2024-02-28T07:12:56;10.16;66.50
84296;SHT31;74464;42.688;23.304;2024-02-28T07:15:23;10.19;66.91
84296;SHT31;74464;42.688;23.304;2024-02-28T07:17:48;10.32;66.22
84296;SHT31;74464;42.688;23.304;2024-02-28T07:20:14;10.21;66.64
84296;SHT31;74464;42.688;23.304;2024-02-28T07:22:43;10.23;66.49
84296;SHT31;74464;42.688;23.304;2024-02-28T07:25:11;10.48;66.10
84296;SHT31;74464;42.688;23.304;2024-02-28T07:27:36;10.58;65.56
84296;SHT31;74464;42.688;23.304;2024-02-28T07:30:02;10.67;65.48
84296;SHT31;74464;42.688;23.304;2024-02-28T07:32:32;10.71;65.36
84296;SHT31;74464;42.688;23.304;2024-02-28T07:35:02;10.86;64.62
84296;SHT31;74464;42.688;23.304;2024-02-28T07:37:28;10.86;64.41
84296;SHT31;74464;42.688;23.304;2024-02-28T07:39:53;10.79;64.46
84296;SHT31;74464;42.688;23.304;2024-02-28T07:42:19;10.82;64.82
84296;SHT31;74464;42.688;23.304;2024-02-28T07:44:45;10.88;64.12
84296;SHT31;74464;42.688;23.304;2024-02-28T07:47:11;10.84;63.97
84296;SHT31;74464;42.688;23.304;2024-02-28T07:49:37;10.84;64.15
84296;SHT31;74464;42.688;23.304;2024-02-28T07:52:03;10.91;64.36
84296;SHT31;74464;42.688;23.304;2024-02-28T07:54:28;10.88;64.19
84296;SHT31;74464;42.688;23.304;2024-02-28T07:56:54;11.18;63.61
84296;SHT31;74464;42.688;23.304;2024-02-28T07:59:20;11.30;62.66
84296;SHT31;74464;42.688;23.304;2024-02-28T08:01:45;11.36;62.68
84296;SHT31;74464;42.688;23.304;2024-02-28T08:04:11;11.53;62.36
84296;SHT31;74464;42.688;23.304;2024-02-28T08:06:36;11.77;61.64
84296;SHT31;74464;42.688;23.304;2024-02-28T08:09:03;11.79;61.32
84296;SHT31;74464;42.688;23.304;2024-02-28T08:11:30;11.85;61.11
84296;SHT31;74464;42.688;23.304;2024-02-28T08:13:55;12.09;60.62
84296;SHT31;74464;42.688;23.304;2024-02-28T08:16:21;11.89;61.12
84296;SHT31;74464;42.688;23.304;2024-02-28T08:18:46;11.86;61.53
84296;SHT31;74464;42.688;23.304;2024-02-28T08:21:12;11.50;63.14
84296;SHT31;74464;42.688;23.304;2024-02-28T08:23:38;11.71;62.43
84296;SHT31;74464;42.688;23.304;2024-02-28T08:26:04;11.77;62.19
84296;SHT31;74464;42.688;23.304;2024-02-28T08:28:29;11.88;62.13
84296;SHT31;74464;42.688;23.304;2024-02-28T08:30:55;12.18;61.05
84296;SHT31;74464;42.688;23.304;2024-02-28T08:33:22;12.34;60.42
84296;SHT31;74464;42.688;23.304;2024-02-28T08:35:48;12.57;59.32
84296;SHT31;74464;42.688;23.304;2024-02-28T08:38:15;12.16;60.46
84296;SHT31;74464;42.688;23.304;2024-02-28T08:40:43;11.85;61.47
84296;SHT31;74464;42.688;23.304;2024-02-28T08:43:10;11.95;61.24
84296;SHT31;74464;42.688;23.304;2024-02-28T08:45:36;12.30;60.49
84296;SHT31;74464;42.688;23.304;2024-02-28T08:48:01;12.57;59.85
84296;SHT31;74464;42.688;23.304;2024-02-28T08:50:28;12.28;60.62
84296;SHT31;74464;42.688;23.304;2024-02-28T08:52:55;12.46;60.01
84296;SHT31;74464;42.688;23.304;2024-02-28T08:55:21;12.78;59.40
84296;SHT31;74464;42.688;23.304;2024-02-28T08:57:49;12.85;58.18
84296;SHT31;74464;42.688;23.304;2024-02-28T09:00:15;12.71;58.66
84296;SHT31;74464;42.688;23.304;2024-02-28T09:02:43;12.48;59.18
84296;SHT31;74464;42.688;23.304;2024-02-28T09:05:09;12.67;58.63
84296;SHT31;74464;42.688;23.304;2024-02-28T09:07:35;12.71;58.59
84296;SHT31;74464;42.688;23.304;2024-02-28T09:10:04;12.91;57.89
84296;SHT31;74464;42.688;23.304;2024-02-28T09:12:32;13.01;57.80
84296;SHT31;74464;42.688;23.304;2024-02-28T09:14:58;13.02;57.66
84296;SHT31;74464;42.688;23.304;2024-02-28T09:17:24;13.01;57.33
84296;SHT31;74464;42.688;23.304;2024-02-28T09:19:50;13.01;57.64
84296;SHT31;74464;42.688;23.304;2024-02-28T09:22:17;12.96;57.46
84296;SHT31;74464;42.688;23.304;2024-02-28T09:24:43;13.08;57.40
84296;SHT31;74464;42.688;23.304;2024-02-28T09:27:09;13.39;56.69
84296;SHT31;74464;42.688;23.304;2024-02-28T09:29:35;13.40;55.94
84296;SHT31;74464;42.688;23.304;2024-02-28T09:32:02;13.37;56.41
84296;SHT31;74464;42.688;23.304;2024-02-28T09:34:27;13.75;55.63
84296;SHT31;74464;42.688;23.304;2024-02-28T09:36:53;14.12;53.88
84296;SHT31;74464;42.688;23.304;2024-02-28T09:39:20;14.41;53.18
84296;SHT31;74464;42.688;23.304;2024-02-28T09:41:50;14.67;52.99
84296;SHT31;74464;42.688;23.304;2024-02-28T09:44:17;14.88;52.03
84296;SHT31;74464;42.688;23.304;2024-02-28T09:46:44;15.03;51.32
84296;SHT31;74464;42.688;23.304;2024-02-28T09:49:10;14.92;52.09
84296;SHT31;74464;42.688;23.304;2024-02-28T09:51:36;15.16;51.27
84296;SHT31;74464;42.688;23.304;2024-02-28T09:54:02;15.40;50.48
84296;SHT31;74464;42.688;23.304;2024-02-28T09:56:29;15.54;49.88
84296;SHT31;74464;42.688;23.304;2024-02-28T09:58:55;15.63;49.30
84296;SHT31;74464;42.688;23.304;2024-02-28T10:01:22;15.30;49.84
84296;SHT31;74464;42.688;23.304;2024-02-28T10:03:52;15.35;49.83
84296;SHT31;74464;42.688;23.304;2024-02-28T10:06:20;15.46;49.06
84296;SHT31;74464;42.688;23.304;2024-02-28T10:08:46;15.53;48.99
84296;SHT31;74464;42.688;23.304;2024-02-28T10:13:48;15.68;48.05
84296;SHT31;74464;42.688;23.304;2024-02-28T10:16:14;15.78;48.24
84296;SHT31;74464;42.688;23.304;2024-02-28T10:18:43;15.80;48.32
84296;SHT31;74464;42.688;23.304;2024-02-28T10:21:09;16.05;47.60
84296;SHT31;74464;42.688;23.304;2024-02-28T10:23:36;16.11;46.92
84296;SHT31;74464;42.688;23.304;2024-02-28T10:26:02;16.12;46.94
84296;SHT31;74464;42.688;23.304;2024-02-28T10:28:29;16.32;46.61
84296;SHT31;74464;42.688;23.304;2024-02-28T10:30:55;16.22;45.77
84296;SHT31;74464;42.688;23.304;2024-02-28T10:33:20;15.84;47.07
84296;SHT31;74464;42.688;23.304;2024-02-28T10:35:50;15.71;47.57
84296;SHT31;74464;42.688;23.304;2024-02-28T10:38:17;16.01;47.41
84296;SHT31;74464;42.688;23.304;2024-02-28T10:40:43;16.26;46.51
84296;SHT31;74464;42.688;23.304;2024-02-28T10:43:11;16.29;45.88
84296;SHT31;74464;42.688;23.304;2024-02-28T10:45:38;16.33;45.98
84296;SHT31;74464;42.688;23.304;2024-02-28T10:48:06;16.25;46.05
84296;SHT31;74464;42.688;23.304;2024-02-28T10:50:33;16.09;46.89
84296;SHT31;74464;42.688;23.304;2024-02-28T10:53:01;16.29;46.16
84296;SHT31;74464;42.688;23.304;2024-02-28T10:55:40;16.49;45.69
84296;SHT31;74464;42.688;23.304;2024-02-28T10:58:08;16.29;44.63
84296;SHT31;74464;42.688;23.304;2024-02-28T11:00:41;15.91;45.66
84296;SHT31;74464;42.688;23.304;2024-02-28T11:03:09;15.88;44.94
84296;SHT31;74464;42.688;23.304;2024-02-28T11:05:43;16.08;43.10
84296;SHT31;74464;42.688;23.304;2024-02-28T11:08:20;16.05;42.74
84296;SHT31;74464;42.688;23.304;2024-02-28T11:10:58;15.91;42.66
84296;SHT31;74464;42.688;23.304;2024-02-28T11:13:30;16.12;43.43
84296;SHT31;74464;42.688;23.304;2024-02-28T11:16:09;16.32;43.23
84296;SHT31;74464;42.688;23.304;2024-02-28T11:18:35;16.23;42.81
84296;SHT31;74464;42.688;23.304;2024-02-28T11:21:02;16.13;43.33
84296;SHT31;74464;42.688;23.304;2024-02-28T11:23:38;16.04;43.29
84296;SHT31;74464;42.688;23.304;2024-02-28T11:26:04;15.95;43.83
84296;SHT31;74464;42.688;23.304;2024-02-28T11:28:29;16.19;43.34
84296;SHT31;74464;42.688;23.304;2024-02-28T11:30:55;16.34;43.35
84296;SHT31;74464;42.688;23.304;2024-02-28T11:33:24;16.56;43.69
84296;SHT31;74464;42.688;23.304;2024-02-28T11:35:56;16.68;43.60
84296;SHT31;74464;42.688;23.304;2024-02-28T11:38:26;16.92;41.97
84296;SHT31;74464;42.688;23.304;2024-02-28T11:40:53;16.89;42.15
84296;SHT31;74464;42.688;23.304;2024-02-28T11:43:20;16.87;40.71
84296;SHT31;74464;42.688;23.304;2024-02-28T11:45:47;16.57;41.06
84296;SHT31;74464;42.688;23.304;2024-02-28T11:48:13;16.52;41.42
84296;SHT31;74464;42.688;23.304;2024-02-28T11:50:40;16.18;42.29
84296;SHT31;74464;42.688;23.304;2024-02-28T11:53:07;16.15;43.02
84296;SHT31;74464;42.688;23.304;2024-02-28T11:55:34;16.18;43.47
84296;SHT31;74464;42.688;23.304;2024-02-28T11:58:00;16.37;43.03
84296;SHT31;74464;42.688;23.304;2024-02-28T12:00:26;16.49;43.21
84296;SHT31;74464;42.688;23.304;2024-02-28T12:02:52;16.64;43.49
84296;SHT31;74464;42.688;23.304;2024-02-28T12:05:21;16.61;43.21
84296;SHT31;74464;42.688;23.304;2024-02-28T12:07:47;16.50;43.28
84296;SHT31;74464;42.688;23.304;2024-02-28T12:10:13;16.63;43.29
84296;SHT31;74464;42.688;23.304;2024-02-28T12:12:39;16.84;43.04
84296;SHT31;74464;42.688;23.304;2024-02-28T12:15:05;16.94;42.16
84296;SHT31;74464;42.688;23.304;2024-02-28T12:17:32;16.95;42.25
84296;SHT31;74464;42.688;23.304;2024-02-28T12:20:02;17.00;42.58
84296;SHT31;74464;42.688;23.304;2024-02-28T12:22:28;17.08;42.25
84296;SHT31;74464;42.688;23.304;2024-02-28T12:24:53;17.08;41.61
84296;SHT31;74464;42.688;23.304;2024-02-28T12:27:24;17.11;42.01
84296;SHT31;74464;42.688;23.304;2024-02-28T12:29:51;17.42;41.63
84296;SHT31;74464;42.688;23.304;2024-02-28T12:32:16;17.12;42.28
84296;SHT31;74464;42.688;23.304;2024-02-28T12:34:43;17.42;42.10
84296;SHT31;74464;42.688;23.304;2024-02-28T12:37:09;17.35;39.29
84296;SHT31;74464;42.688;23.304;2024-02-28T12:39:34;17.50;40.56
84296;SHT31;74464;42.688;23.304;2024-02-28T12:42:00;17.63;39.37
84296;SHT31;74464;42.688;23.304;2024-02-28T12:44:26;17.66;39.78
84296;SHT31;74464;42.688;23.304;2024-02-28T12:46:52;17.81;39.19
84296;SHT31;74464;42.688;23.304;2024-02-28T12:49:17;17.92;40.02
84296;SHT31;74464;42.688;23.304;2024-02-28T12:51:45;17.99;39.94
84296;SHT31;74464;42.688;23.304;2024-02-28T12:54:12;18.04;39.43
84296;SHT31;74464;42.688;23.304;2024-02-28T12:56:41;17.97;40.41
84296;SHT31;74464;42.688;23.304;2024-02-28T12:59:10;17.99;40.96
84296;SHT31;74464;42.688;23.304;2024-02-28T13:01:37;17.90;41.46
84296;SHT31;74464;42.688;23.304;2024-02-28T13:04:03;17.98;41.27
84296;SHT31;74464;42.688;23.304;2024-02-28T13:06:29;17.94;40.20
84296;SHT31;74464;42.688;23.304;2024-02-28T13:08:55;17.90;40.92
84296;SHT31;74464;42.688;23.304;2024-02-28T13:11:24;17.87;40.63
84296;SHT31;74464;42.688;23.304;2024-02-28T13:13:51;17.94;40.94
84296;SHT31;74464;42.688;23.304;2024-02-28T13:16:17;17.97;41.22
84296;SHT31;74464;42.688;23.304;2024-02-28T13:18:44;18.02;41.01
84296;SHT31;74464;42.688;23.304;2024-02-28T13:21:10;18.09;40.97
84296;SHT31;74464;42.688;23.304;2024-02-28T13:23:36;17.97;41.73
84296;SHT31;74464;42.688;23.304;2024-02-28T13:26:06;17.91;42.24
84296;SHT31;74464;42.688;23.304;2024-02-28T13:28:33;17.92;42.35
84296;SHT31;74464;42.688;23.304;2024-02-28T13:31:01;17.88;41.97
84296;SHT31;74464;42.688;23.304;2024-02-28T13:33:27;17.88;42.21
84296;SHT31;74464;42.688;23.304;2024-02-28T13:35:54;17.75;42.49
84296;SHT31;74464;42.688;23.304;2024-02-28T13:38:21;17.77;42.77
84296;SHT31;74464;42.688;23.304;2024-02-28T13:40:48;17.78;42.24
84296;SHT31;74464;42.688;23.304;2024-02-28T13:43:15;17.82;42.22
84296;SHT31;74464;42.688;23.304;2024-02-28T13:45:46;17.85;42.28
84296;SHT31;74464;42.688;23.304;2024-02-28T13:48:17;17.95;42.10
84296;SHT31;74464;42.688;23.304;2024-02-28T13:50:47;17.88;42.21
84296;SHT31;74464;42.688;23.304;2024-02-28T13:53:13;17.70;41.90
84296;SHT31;74464;42.688;23.304;2024-02-28T13:55:42;17.29;42.85
84296;SHT31;74464;42.688;23.304;2024-02-28T13:58:10;17.28;42.72
84296;SHT31;74464;42.688;23.304;2024-02-28T14:00:37;17.04;42.99
84296;SHT31;74464;42.688;23.304;2024-02-28T14:03:04;17.02;43.22
84296;SHT31;74464;42.688;23.304;2024-02-28T14:05:36;17.09;43.17
84296;SHT31;74464;42.688;23.304;2024-02-28T14:08:02;17.15;43.22
84296;SHT31;74464;42.688;23.304;2024-02-28T14:10:33;17.20;43.17
84296;SHT31;74464;42.688;23.304;2024-02-28T14:12:59;17.19;43.09
84296;SHT31;74464;42.688;23.304;2024-02-28T14:15:26;17.18;43.17
84296;SHT31;74464;42.688;23.304;2024-02-28T14:17:52;17.18;43.22
84296;SHT31;74464;42.688;23.304;2024-02-28T14:20:18;17.16;43.09
84296;SHT31;74464;42.688;23.304;2024-02-28T14:22:44;17.11;43.53
84296;SHT31;74464;42.688;23.304;2024-02-28T14:25:11;17.15;43.43
84296;SHT31;74464;42.688;23.304;2024-02-28T14:27:37;17.14;43.53
84296;SHT31;74464;42.688;23.304;2024-02-28T14:30:05;17.15;43.55
84296;SHT31;74464;42.688;23.304;2024-02-28T14:32:35;17.20;43.25
84296;SHT31;74464;42.688;23.304;2024-02-28T14:35:05;17.19;42.95
84296;SHT31;74464;42.688;23.304;2024-02-28T14:37:32;17.19;43.04
84296;SHT31;74464;42.688;23.304;2024-02-28T14:40:02;17.18;42.92
84296;SHT31;74464;42.688;23.304;2024-02-28T14:42:32;17.19;43.30
84296;SHT31;74464;42.688;23.304;2024-02-28T14:44:59;17.16;43.44
84296;SHT31;74464;42.688;23.304;2024-02-28T14:47:25;17.16;43.68
84296;SHT31;74464;42.688;23.304;2024-02-28T14:49:50;17.18;43.58
84296;SHT31;74464;42.688;23.304;2024-02-28T14:52:16;17.15;43.58
84296;SHT31;74464;42.688;23.304;2024-02-28T14:54:44;17.14;43.77
84296;SHT31;74464;42.688;23.304;2024-02-28T14:57:11;17.18;43.55
84296;SHT31;74464;42.688;23.304;2024-02-28T14:59:37;17.16;43.47
84296;SHT31;74464;42.688;23.304;2024-02-28T15:02:03;17.19;43.81
84296;SHT31;74464;42.688;23.304;2024-02-28T15:04:33;17.22;43.68
84296;SHT31;74464;42.688;23.304;2024-02-28T15:06:59;17.20;43.51
84296;SHT31;74464;42.688;23.304;2024-02-28T15:09:26;17.19;43.77
84296;SHT31;74464;42.688;23.304;2024-02-28T15:11:51;17.22;43.64
84296;SHT31;74464;42.688;23.304;2024-02-28T15:14:20;17.19;42.95
84296;SHT31;74464;42.688;23.304;2024-02-28T15:16:49;17.15;43.07
84296;SHT31;74464;42.688;23.304;2024-02-28T15:19:16;17.12;43.26
84296;SHT31;74464;42.688;23.304;2024-02-28T15:21:43;17.11;43.31